X  Close Metar Aviation Weather Data     EGNS Isle of Man Airport
Temperature
50°F Temperature
48°F Dewpoint
94% Humidity



Wind
17 MPH
27 KM/H
8 M/S
15 KTS



210°
SSW
Current Conditions

Light Rain Light Rain
Pressure 1005.76 (hPa) - 29.7 (inHg)
Visibility 6 (mile) - 9.7 (km)
Airport
Airport-code EGNS

Location: Isle of Man Airport
Distance: 18 (mi)

Metar:
EGNS 281450Z 21015KT 9999 -RA FEW004 OVC012 10/09 Q1006 TEMPO 3000 BKN004

Time: 28-02-2024 14:50 GMT